Time;durP1;ratioP1;P1;durP2;ratioP2;P2;SDS_P1;SDS_P2;PMS_P1;PMS_P2;Temp;Humidity;BMP_temperature;BMP_pressure;BME280_temperature;BME280_humidity;BME280_pressure;Samples;Min_cycle;Max_cycle;Signal;HPM_P1;HPM_P2
2024/04/09 00:00:20;;;;;;;4.00;1.67;;;;;;;-146.27;90.64;40766.66;5369964;26;20144;-69
2024/04/09 00:02:45;;;;;;;6.15;1.40;;;;;;;-146.27;90.30;40730.88;5347465;26;20032;-70
2024/04/09 00:05:11;;;;;;;8.30;2.00;;;;;;;-146.27;90.50;40748.78;5374803;26;20007;-70
2024/04/09 00:07:38;;;;;;;4.80;1.40;;;;;;;-146.27;90.26;40726.91;5366398;26;20007;-69
2024/04/09 00:10:06;;;;;;;4.57;1.52;;;;;;;-146.27;90.32;40762.69;5355842;26;20001;-69
2024/04/09 00:12:33;;;;;;;7.30;1.80;;;;;;;-146.27;90.64;40754.75;5358368;26;20004;-69
2024/04/09 00:14:59;;;;;;;6.28;1.10;;;;;;;-146.27;90.65;40740.81;5372380;26;20011;-70
2024/04/09 00:17:25;;;;;;;7.57;1.10;;;;;;;-146.27;90.75;40806.44;5374992;26;20000;-70
2024/04/09 00:19:51;;;;;;;1.73;0.80;;;;;;;-146.27;90.78;40784.56;5358773;26;20430;-70
2024/04/09 00:22:17;;;;;;;5.00;1.25;;;;;;;-146.27;90.37;40796.47;5345602;26;20037;-70
2024/04/09 00:24:43;;;;;;;2.75;0.80;;;;;;;-146.27;90.80;40838.22;5368491;26;20000;-71
2024/04/09 00:27:08;;;;;;;7.30;1.00;;;;;;;-146.27;90.40;40856.13;5347742;26;19993;-69
2024/04/09 00:29:36;;;;;;;1.50;0.77;;;;;;;-146.27;90.92;40858.09;5370068;26;20004;-69
2024/04/09 00:32:02;;;;;;;5.05;1.20;;;;;;;-146.27;90.60;40830.28;5373610;26;20065;-69
2024/04/09 00:34:29;;;;;;;5.65;0.93;;;;;;;-146.27;90.02;40824.31;5378726;26;20020;-69
2024/04/09 00:36:55;;;;;;;3.45;0.90;;;;;;;-146.27;90.49;40842.22;5356102;26;20012;-71
2024/04/09 00:39:25;;;;;;;1.08;0.68;;;;;;;-146.27;91.12;40850.16;5373207;26;20574;-69
2024/04/09 00:41:51;;;;;;;3.60;1.25;;;;;;;-146.27;91.09;40856.13;5368224;26;20449;-69
2024/04/09 00:44:16;;;;;;;4.90;1.50;;;;;;;-146.27;90.90;40822.31;5409786;26;19996;-70
2024/04/09 00:46:42;;;;;;;4.20;0.80;;;;;;;-146.27;90.71;40858.09;5410001;26;20003;-70
2024/04/09 00:49:10;;;;;;;1.98;0.90;;;;;;;-146.27;90.68;40868.06;5413006;26;19995;-71
2024/04/09 00:51:39;;;;;;;5.63;1.25;;;;;;;-146.27;90.36;40824.31;5389179;26;20771;-70
2024/04/09 00:54:05;;;;;;;2.92;0.65;;;;;;;-146.27;89.88;40893.91;5423851;26;20737;-71
2024/04/09 00:56:33;;;;;;;2.72;0.73;;;;;;;-146.27;89.96;40868.06;5395473;26;20000;-72
2024/04/09 00:58:59;;;;;;;1.75;0.70;;;;;;;-146.27;89.92;40850.16;5399720;26;20044;-71
2024/04/09 01:01:26;;;;;;;1.48;0.90;;;;;;;-146.27;90.23;40911.78;5399828;26;20068;-70
2024/04/09 01:03:52;;;;;;;7.72;1.25;;;;;;;-146.27;89.20;40856.13;5408888;26;20000;-72
2024/04/09 01:06:18;;;;;;;1.73;0.90;;;;;;;-146.27;88.89;40850.16;5399379;26;20018;-71
2024/04/09 01:08:43;;;;;;;1.65;1.00;;;;;;;-146.27;89.67;40931.66;5411222;26;20097;-70
2024/04/09 01:11:09;;;;;;;1.35;0.80;;;;;;;-146.27;90.04;40897.88;5378506;26;20011;-70
2024/04/09 01:13:38;;;;;;;4.35;1.65;;;;;;;-146.27;89.45;40945.59;5407672;26;20023;-69
2024/04/09 01:16:03;;;;;;;1.92;0.90;;;;;;;-146.27;89.59;40921.72;5411346;26;20007;-70
2024/04/09 01:18:29;;;;;;;4.30;1.20;;;;;;;-146.27;89.52;40945.59;5405646;26;20004;-70
2024/04/09 01:20:54;;;;;;;2.10;1.20;;;;;;;-146.27;88.95;40931.66;5407105;26;19996;-69
2024/04/09 01:23:20;;;;;;;1.42;1.05;;;;;;;-146.27;88.86;40993.28;5407602;26;20009;-70
2024/04/09 01:25:46;;;;;;;5.90;1.17;;;;;;;-146.27;88.45;41009.19;5393976;26;20007;-69
2024/04/09 01:28:11;;;;;;;4.80;0.77;;;;;;;-146.27;87.92;41019.13;5410828;26;20430;-69
2024/04/09 01:30:37;;;;;;;4.65;1.83;;;;;;;-146.27;87.99;41039.00;5407429;26;19992;-68
2024/04/09 01:33:04;;;;;;;3.22;1.13;;;;;;;-146.27;87.93;41148.34;5404627;26;19996;-70
2024/04/09 01:35:30;;;;;;;3.00;0.90;;;;;;;-146.27;87.16;41148.34;5408386;26;19992;-71
2024/04/09 01:37:55;;;;;;;2.78;0.93;;;;;;;-146.27;86.68;41110.59;5401762;26;20458;-70
2024/04/09 01:40:21;;;;;;;5.63;0.95;;;;;;;-146.27;85.91;41255.72;5400903;26;20039;-70
2024/04/09 01:42:46;;;;;;;5.07;1.00;;;;;;;-146.27;85.29;41394.88;5408125;26;20025;-71
2024/04/09 01:45:12;;;;;;;7.43;1.25;;;;;;;-146.27;84.74;41460.50;5412471;26;20022;-70
2024/04/09 01:47:37;;;;;;;3.60;0.93;;;;;;;-146.27;84.64;41512.19;5409423;26;20444;-69
2024/04/09 01:50:09;;;;;;;5.28;0.77;;;;;;;-146.27;84.63;41571.84;5407876;26;20014;-71
2024/04/09 01:52:34;;;;;;;7.22;1.30;;;;;;;-146.27;84.86;41563.88;5407716;26;20760;-72
2024/04/09 01:55:00;;;;;;;6.10;1.60;;;;;;;-146.27;84.39;41579.78;5405477;26;20048;-70
2024/04/09 01:57:31;;;;;;;3.83;0.88;;;;;;;-146.27;83.99;41589.75;5401855;26;19996;-68
2024/04/09 01:59:57;;;;;;;3.15;1.08;;;;;;;-146.27;83.68;41625.53;5411487;26;20004;-64
2024/04/09 02:02:23;;;;;;;5.43;1.45;;;;;;;-146.27;83.47;41732.91;5409741;26;20076;-65
2024/04/09 02:04:48;;;;;;;5.20;1.30;;;;;;;-146.27;84.02;41862.16;5394206;26;20004;-64
2024/04/09 02:07:14;;;;;;;7.88;1.25;;;;;;;-146.27;83.46;41828.34;5393970;26;19996;-70
2024/04/09 02:09:39;;;;;;;5.72;1.10;;;;;;;-146.27;83.50;41810.44;5408432;26;20401;-70
2024/04/09 02:12:07;;;;;;;10.07;1.65;;;;;;;-146.27;83.16;41792.56;5409755;26;20007;-69
2024/04/09 02:14:33;;;;;;;7.80;1.30;;;;;;;-146.27;82.71;41796.53;5407236;26;19995;-69
2024/04/09 02:16:59;;;;;;;11.70;1.35;;;;;;;-146.27;83.43;41858.16;5409927;26;20524;-71
2024/04/09 02:19:25;;;;;;;5.45;0.88;;;;;;;-146.27;83.33;41868.09;5402804;26;20106;-70
2024/04/09 02:21:51;;;;;;;7.50;1.08;;;;;;;-146.27;82.99;41844.25;5410487;26;19995;-70
2024/04/09 02:24:16;;;;;;;8.07;1.60;;;;;;;-146.27;83.10;41945.66;5408825;26;20007;-70
2024/04/09 02:26:43;;;;;;;5.45;1.17;;;;;;;-146.27;83.49;41975.50;5373896;26;20353;-71
2024/04/09 02:29:08;;;;;;;9.82;1.63;;;;;;;-146.27;84.06;41991.41;5378893;26;20093;-68
2024/04/09 02:31:34;;;;;;;7.15;1.48;;;;;;;-146.27;83.69;41995.38;5401358;26;20468;-71
2024/04/09 02:33:59;;;;;;;8.98;2.03;;;;;;;-146.27;83.84;41981.44;5383441;26;20011;-70
2024/04/09 02:36:25;;;;;;;8.27;1.50;;;;;;;-146.27;83.12;41987.41;5411455;26;19996;-69
2024/04/09 02:38:50;;;;;;;13.60;1.88;;;;;;;-146.27;83.28;41995.38;5403682;26;20421;-70
2024/04/09 02:41:17;;;;;;;7.47;1.50;;;;;;;-146.27;83.13;42019.22;5406263;26;19999;-71
2024/04/09 02:43:43;;;;;;;10.57;2.30;;;;;;;-146.27;82.90;42094.81;5406307;26;20008;-71
2024/04/09 02:46:08;;;;;;;6.43;1.75;;;;;;;-146.27;82.88;42041.09;5396147;26;20019;-71
2024/04/09 02:48:34;;;;;;;9.93;2.00;;;;;;;-146.27;82.71;42120.66;5396971;26;20000;-71
2024/04/09 02:51:03;;;;;;;10.10;2.00;;;;;;;-146.27;82.58;42148.50;5394788;26;19995;-70
2024/04/09 02:53:29;;;;;;;8.25;1.75;;;;;;;-146.27;82.41;42146.50;5411278;26;19999;-69
2024/04/09 02:56:07;;;;;;;13.32;1.45;;;;;;;-146.27;81.43;42120.66;5405363;26;20005;-68
2024/04/09 02:58:34;;;;;;;9.40;1.90;;;;;;;-146.27;81.92;42247.91;5392276;26;19996;-70
2024/04/09 03:01:07;;;;;;;8.07;1.20;;;;;;;-146.27;81.46;42349.34;5379957;26;20041;-69
2024/04/09 03:03:33;;;;;;;9.13;1.77;;;;;;;-146.27;81.21;42345.38;5410451;26;20002;-70
2024/04/09 03:06:09;;;;;;;10.50;1.90;;;;;;;-146.27;80.53;42349.34;5392997;26;20439;-71
2024/04/09 03:08:35;;;;;;;9.07;1.60;;;;;;;-146.27;80.11;42347.34;5379273;26;20008;-72
2024/04/09 03:11:01;;;;;;;9.80;1.42;;;;;;;-146.27;79.83;42353.31;5401645;26;20082;-71
2024/04/09 03:13:26;;;;;;;9.05;1.38;;;;;;;-146.27;80.27;42484.56;5397724;26;20007;-71
2024/04/09 03:15:52;;;;;;;11.20;1.30;;;;;;;-146.27;79.99;42470.66;5393263;26;20044;-70
2024/04/09 03:18:18;;;;;;;13.40;1.10;;;;;;;-146.27;79.85;42504.47;5409014;26;20409;-68
2024/04/09 03:20:44;;;;;;;10.57;1.40;;;;;;;-146.27;79.00;42584.00;5409871;26;20008;-70
2024/04/09 03:23:09;;;;;;;14.88;1.70;;;;;;;-146.27;77.53;42816.72;5409177;26;20448;-70
2024/04/09 03:25:35;;;;;;;12.10;1.08;;;;;;;-146.27;77.33;42794.84;5409559;26;20043;-70
2024/04/09 03:28:00;;;;;;;11.13;1.52;;;;;;;-146.27;76.36;42961.91;5407025;26;20011;-70
2024/04/09 03:30:26;;;;;;;7.28;1.58;;;;;;;-146.27;76.13;43021.56;5410560;26;20011;-69
2024/04/09 03:32:52;;;;;;;7.18;1.30;;;;;;;-146.27;75.63;43071.31;5409161;26;20367;-70
2024/04/09 03:35:17;;;;;;;6.65;1.23;;;;;;;-146.27;76.22;43057.38;5410309;26;20045;-70
2024/04/09 03:37:43;;;;;;;4.45;1.10;;;;;;;-146.27;75.95;43057.38;5407649;26;20012;-71
2024/04/09 03:40:09;;;;;;;9.40;1.55;;;;;;;-146.27;75.46;43200.59;5397849;26;20015;-71
2024/04/09 03:42:35;;;;;;;6.88;1.17;;;;;;;-146.27;75.56;43204.56;5395322;26;19996;-70
2024/04/09 03:45:00;;;;;;;9.38;2.08;;;;;;;-146.27;75.24;43178.72;5406283;26;20007;-71
2024/04/09 03:47:26;;;;;;;6.22;1.15;;;;;;;-146.27;75.21;43204.56;5409909;26;20061;-71
2024/04/09 03:49:51;;;;;;;9.52;1.70;;;;;;;-146.27;75.65;43224.47;5409361;26;20085;-69
2024/04/09 03:52:17;;;;;;;10.85;1.85;;;;;;;-146.27;76.24;43290.09;5413943;26;20545;-70
2024/04/09 03:54:45;;;;;;;12.55;1.88;;;;;;;-146.27;75.95;43164.78;5414378;26;20005;-70
2024/04/09 03:57:10;;;;;;;9.48;1.52;;;;;;;-146.27;76.33;43220.47;5413481;26;20597;-69
2024/04/09 03:59:36;;;;;;;10.05;1.63;;;;;;;-146.27;76.06;43242.38;5408366;26;20011;-70
2024/04/09 04:02:01;;;;;;;7.07;1.10;;;;;;;-146.27;76.04;43150.88;5405668;26;19992;-69
2024/04/09 04:04:26;;;;;;;11.95;1.50;;;;;;;-146.27;75.50;43142.91;5397912;26;20741;-71
2024/04/09 04:06:52;;;;;;;8.10;1.23;;;;;;;-146.27;75.32;43154.84;5411744;26;20024;-69
2024/04/09 04:09:17;;;;;;;12.70;1.45;;;;;;;-146.27;76.33;43222.47;5392757;26;19992;-70
2024/04/09 04:11:42;;;;;;;10.52;2.08;;;;;;;-146.27;75.58;43115.06;5402016;26;20007;-69
2024/04/09 04:14:08;;;;;;;8.95;1.55;;;;;;;-146.27;75.69;43128.97;5377106;26;20000;-71
2024/04/09 04:16:33;;;;;;;9.93;1.80;;;;;;;-146.27;76.21;43172.75;5405759;26;20015;-69
2024/04/09 04:18:59;;;;;;;11.02;1.48;;;;;;;-146.27;76.90;43212.53;5386626;26;20000;-70
2024/04/09 04:21:24;;;;;;;7.50;1.88;;;;;;;-146.27;76.24;43164.78;5401920;26;20333;-70
2024/04/09 04:23:51;;;;;;;7.35;1.55;;;;;;;-146.27;77.08;43188.66;5394449;26;19996;-68
2024/04/09 04:26:22;;;;;;;17.17;2.28;;;;;;;-146.27;76.51;43101.13;5378070;26;20010;-65
2024/04/09 04:28:49;;;;;;;8.70;2.45;;;;;;;-146.27;76.08;43101.13;5412658;26;20003;-65
2024/04/09 04:31:19;;;;;;;11.02;2.03;;;;;;;-146.27;76.71;43127.00;5409949;26;20078;-65
2024/04/09 04:33:45;;;;;;;14.15;1.95;;;;;;;-146.27;76.26;43093.19;5414117;26;20022;-65
2024/04/09 04:36:11;;;;;;;10.00;1.80;;;;;;;-146.27;76.94;43079.25;5380359;26;20047;-64
2024/04/09 04:38:38;;;;;;;13.23;1.98;;;;;;;-146.27;76.71;43099.16;5385089;26;20646;-66
2024/04/09 04:41:04;;;;;;;8.90;2.00;;;;;;;-146.27;77.51;43132.97;5381048;26;20011;-63
2024/04/09 04:43:33;;;;;;;10.65;1.92;;;;;;;-146.27;77.55;43186.66;5387062;26;20018;-67
2024/04/09 04:46:00;;;;;;;8.13;1.42;;;;;;;-146.27;77.40;43144.91;5390109;26;20013;-67
2024/04/09 04:48:27;;;;;;;7.85;1.35;;;;;;;-146.27;77.83;43160.81;5405048;26;20348;-65
2024/04/09 04:50:53;;;;;;;5.95;2.00;;;;;;;-146.27;78.72;43130.97;5406029;26;20002;-66
2024/04/09 04:53:18;;;;;;;14.35;1.80;;;;;;;-146.27;78.00;43176.72;5411560;26;20335;-66
2024/04/09 04:55:44;;;;;;;10.38;2.42;;;;;;;-146.27;77.95;43168.75;5410300;26;20068;-65
2024/04/09 04:58:10;;;;;;;7.80;1.50;;;;;;;-146.27;78.81;43228.44;5411754;26;20054;-64
2024/04/09 05:00:36;;;;;;;3.63;1.35;;;;;;;-146.27;79.11;43218.50;5410342;26;20355;-66
2024/04/09 05:03:01;;;;;;;8.27;1.55;;;;;;;-146.27;79.99;43222.47;5393794;26;20004;-66
2024/04/09 05:05:28;;;;;;;6.38;2.30;;;;;;;-146.27;80.41;43212.53;5410472;26;20048;-66
2024/04/09 05:07:54;;;;;;;6.85;1.67;;;;;;;-146.27;81.21;43204.56;5407307;26;20076;-65
2024/04/09 05:10:21;;;;;;;11.35;2.15;;;;;;;-146.27;80.70;43222.47;5394403;26;20012;-66
2024/04/09 05:12:47;;;;;;;11.60;2.47;;;;;;;-146.27;81.01;43284.13;5401457;26;20572;-66
2024/04/09 05:15:13;;;;;;;10.40;1.52;;;;;;;-146.27;81.39;43274.19;5404241;26;20081;-67
2024/04/09 05:17:39;;;;;;;6.85;1.45;;;;;;;-146.27;80.91;43292.09;5407453;26;20004;-65
2024/04/09 05:20:09;;;;;;;9.13;1.48;;;;;;;-146.27;80.18;43260.25;5409537;26;20462;-65
2024/04/09 05:22:42;;;;;;;6.13;1.50;;;;;;;-146.27;79.59;43319.94;5404891;26;20014;-66
2024/04/09 05:25:12;;;;;;;8.13;2.03;;;;;;;-146.27;79.24;43437.31;5399803;26;20006;-66
2024/04/09 05:27:38;;;;;;;14.80;2.08;;;;;;;-146.27;79.07;43524.84;5407333;26;19991;-66
2024/04/09 05:30:04;;;;;;;7.10;1.58;;;;;;;-146.27;78.58;43562.63;5401047;26;20130;-68
2024/04/09 05:32:31;;;;;;;8.70;1.80;;;;;;;-146.27;78.85;43648.16;5410575;26;20034;-66
2024/04/09 05:34:56;;;;;;;7.22;1.30;;;;;;;-146.27;78.46;43729.72;5410964;26;19999;-66
2024/04/09 05:37:22;;;;;;;9.43;2.67;;;;;;;-146.27;76.93;43872.97;5379509;26;20073;-70
2024/04/09 05:39:48;;;;;;;5.88;2.13;;;;;;;-146.27;76.25;44006.25;5410375;26;20011;-69
2024/04/09 05:42:14;;;;;;;9.00;2.13;;;;;;;-146.27;76.27;44155.47;5398322;26;20011;-68
2024/04/09 05:44:39;;;;;;;5.53;1.90;;;;;;;-146.27;75.47;44262.91;5409045;26;20010;-72
2024/04/09 05:47:05;;;;;;;6.78;1.80;;;;;;;-146.27;75.36;44235.06;5411843;26;19996;-68
2024/04/09 05:49:34;;;;;;;12.05;2.03;;;;;;;-146.27;74.71;44203.22;5406724;26;20000;-72
2024/04/09 05:52:00;;;;;;;8.18;2.15;;;;;;;-146.27;74.45;44199.25;5411643;26;20578;-69
2024/04/09 05:54:26;;;;;;;9.20;1.90;;;;;;;-146.27;74.96;44191.28;5411839;26;20011;-72
2024/04/09 05:56:52;;;;;;;3.70;1.58;;;;;;;-146.27;75.37;44135.59;5394215;26;20347;-72
2024/04/09 05:59:18;;;;;;;6.00;2.00;;;;;;;-146.27;75.55;44151.50;5410283;26;19992;-70
2024/04/09 06:01:44;;;;;;;5.63;2.00;;;;;;;-146.27;75.81;44137.56;5399350;26;20461;-73
2024/04/09 06:04:10;;;;;;;7.47;2.13;;;;;;;-146.27;76.48;44215.16;5399952;26;20343;-71
2024/04/09 06:06:35;;;;;;;10.30;2.03;;;;;;;-146.27;76.08;44199.25;5395556;26;19991;-71
2024/04/09 06:09:01;;;;;;;4.60;1.48;;;;;;;-146.27;76.41;44135.59;5408687;26;20003;-69
2024/04/09 06:11:27;;;;;;;5.78;1.40;;;;;;;-146.27;75.33;44195.28;5394336;26;20066;-68
2024/04/09 06:13:56;;;;;;;13.85;1.90;;;;;;;-146.27;76.23;44239.03;5400680;26;19999;-70
2024/04/09 06:16:21;;;;;;;3.92;1.50;;;;;;;-146.27;76.69;44272.88;5411367;26;20018;-71
2024/04/09 06:18:47;;;;;;;8.43;1.70;;;;;;;-146.27;76.53;44272.88;5390202;26;20008;-70
2024/04/09 06:21:13;;;;;;;7.80;1.50;;;;;;;-146.27;76.14;44207.22;5404413;26;20000;-70
2024/04/09 06:23:38;;;;;;;10.43;1.83;;;;;;;-146.27;75.48;44266.91;5393174;26;20440;-71
2024/04/09 06:26:04;;;;;;;5.60;1.55;;;;;;;-146.27;74.71;44338.53;5397953;26;20668;-69
2024/04/09 06:28:29;;;;;;;7.15;1.40;;;;;;;-146.27;74.35;44422.09;5398622;26;19995;-69
2024/04/09 06:30:54;;;;;;;5.00;1.05;;;;;;;-146.27;73.07;44525.56;5382701;26;20003;-70
2024/04/09 06:33:20;;;;;;;8.27;1.50;;;;;;;-146.27;71.80;44613.13;5407845;26;20011;-71
2024/04/09 06:35:46;;;;;;;9.60;1.60;;;;;;;-146.27;71.82;44637.00;5362213;26;20012;-70
2024/04/09 06:38:12;;;;;;;3.22;1.38;;;;;;;-146.27;70.87;44706.63;5395085;26;19992;-70
2024/04/09 06:40:37;;;;;;;4.97;1.45;;;;;;;-146.27;70.34;44824.03;5377334;26;20001;-72
2024/04/09 06:43:03;;;;;;;4.10;1.17;;;;;;;-146.27;69.53;44843.94;5399907;26;20015;-71
2024/04/09 06:45:29;;;;;;;5.68;1.17;;;;;;;-146.27;69.56;44907.63;5410439;26;20589;-69
2024/04/09 06:47:54;;;;;;;4.43;0.93;;;;;;;-146.27;68.71;44987.22;5379916;26;20036;-70
2024/04/09 06:50:20;;;;;;;5.10;1.23;;;;;;;-146.27;67.80;45011.09;5411932;26;20049;-69
2024/04/09 06:52:45;;;;;;;5.47;1.33;;;;;;;-146.27;67.31;45128.50;5412376;26;19996;-69
2024/04/09 06:55:10;;;;;;;14.70;1.75;;;;;;;-146.27;65.93;45178.28;5379086;26;19992;-70
2024/04/09 06:57:36;;;;;;;5.95;1.10;;;;;;;-146.27;65.51;45158.38;5400680;26;19992;-70
2024/04/09 07:00:04;;;;;;;5.55;1.10;;;;;;;-146.27;65.42;45285.75;5411318;26;20007;-70
2024/04/09 07:02:29;;;;;;;6.90;1.30;;;;;;;-146.27;66.45;45317.56;5389392;26;20012;-70
2024/04/09 07:04:55;;;;;;;7.60;1.13;;;;;;;-146.27;66.38;45249.91;5399443;26;20016;-70
2024/04/09 07:07:23;;;;;;;4.93;0.82;;;;;;;-146.27;65.48;45269.81;5391359;26;20993;-71
2024/04/09 07:09:49;;;;;;;6.00;1.40;;;;;;;-146.27;66.19;45271.81;5410310;26;20719;-72
2024/04/09 07:12:15;;;;;;;6.40;1.20;;;;;;;-146.27;65.71;45317.56;5401090;26;20004;-70
2024/04/09 07:14:41;;;;;;;6.28;2.35;;;;;;;-146.27;65.67;45345.44;5401869;26;20072;-73
2024/04/09 07:17:06;;;;;;;3.38;0.88;;;;;;;-146.27;65.64;45345.44;5394889;26;20063;-73
2024/04/09 07:19:32;;;;;;;5.90;1.40;;;;;;;-146.27;65.29;45303.66;5377325;26;20024;-73
2024/04/09 07:21:57;;;;;;;6.50;1.30;;;;;;;-146.27;65.19;45293.69;5384750;26;20153;-72
2024/04/09 07:24:23;;;;;;;6.50;1.02;;;;;;;-146.27;63.90;45452.91;5393775;26;20426;-72
2024/04/09 07:26:48;;;;;;;2.50;0.65;;;;;;;-146.27;59.24;45723.59;5404399;26;21447;-72
2024/04/09 07:29:14;;;;;;;6.07;1.10;;;;;;;-146.27;59.75;45807.19;5382617;26;20301;-71
2024/04/09 07:31:39;;;;;;;2.50;0.82;;;;;;;-146.27;60.54;45805.19;5412962;26;20444;-72
2024/04/09 07:34:05;;;;;;;6.70;1.30;;;;;;;-146.27;59.28;45936.56;5356148;26;20767;-72
2024/04/09 07:36:31;;;;;;;4.50;1.25;;;;;;;-146.27;58.16;45910.69;5404156;26;20003;-71
2024/04/09 07:38:56;;;;;;;1.58;0.82;;;;;;;-146.27;57.29;46002.25;5414510;26;19999;-70
2024/04/09 07:41:25;;;;;;;2.78;0.85;;;;;;;-146.27;57.27;45986.34;5402703;26;20000;-72
2024/04/09 07:43:51;;;;;;;8.32;1.23;;;;;;;-146.27;56.82;46050.03;5366671;26;20004;-72
2024/04/09 07:46:17;;;;;;;2.42;0.68;;;;;;;-146.27;56.74;46038.09;5363747;26;20007;-72
2024/04/09 07:48:44;;;;;;;5.32;0.65;;;;;;;-146.27;56.74;45998.28;5379023;26;20007;-69
2024/04/09 07:51:09;;;;;;;9.07;1.02;;;;;;;-146.27;57.17;46034.09;5376844;26;20008;-73
2024/04/09 07:53:34;;;;;;;8.43;1.17;;;;;;;-146.27;57.02;46073.91;5376993;26;19996;-72
2024/04/09 07:56:08;;;;;;;3.20;0.77;;;;;;;-146.27;57.68;46085.88;5376373;26;20011;-74
2024/04/09 07:58:33;;;;;;;4.80;0.80;;;;;;;-146.27;57.38;46117.72;5363643;26;20457;-71
2024/04/09 08:00:59;;;;;;;1.52;0.77;;;;;;;-146.27;57.19;46107.75;5378323;26;20005;-72
2024/04/09 08:03:24;;;;;;;5.07;0.90;;;;;;;-146.27;56.38;46075.91;5372751;26;20028;-72
2024/04/09 08:05:51;;;;;;;2.72;0.80;;;;;;;-146.27;55.62;46065.97;5376699;26;20011;-72
2024/04/09 08:08:17;;;;;;;6.30;0.93;;;;;;;-146.27;55.95;46054.00;5379766;26;19992;-71
2024/04/09 08:10:43;;;;;;;4.82;0.70;;;;;;;-146.27;55.98;46054.00;5377363;26;19992;-73
2024/04/09 08:13:10;;;;;;;1.10;0.60;;;;;;;-146.27;55.73;46000.28;5365842;26;20029;-72
2024/04/09 08:15:36;;;;;;;5.78;1.20;;;;;;;-146.27;56.53;46081.88;5354819;26;20553;-70
2024/04/09 08:18:02;;;;;;;5.43;0.80;;;;;;;-146.27;57.20;46145.59;5334068;26;20017;-71
2024/04/09 08:20:28;;;;;;;4.15;1.00;;;;;;;-146.27;57.04;46109.75;5338735;26;20000;-73
2024/04/09 08:22:53;;;;;;;5.00;0.90;;;;;;;-146.27;57.91;46145.59;5376003;26;21031;-72
2024/04/09 08:25:20;;;;;;;1.52;0.60;;;;;;;-146.27;57.44;46111.75;5365265;26;20001;-70
2024/04/09 08:27:46;;;;;;;4.60;0.90;;;;;;;-146.27;57.55;46113.72;5331970;26;20340;-71
2024/04/09 08:30:17;;;;;;;3.70;0.82;;;;;;;-146.27;57.55;46115.72;5373667;26;20001;-71
2024/04/09 08:32:44;;;;;;;3.72;1.33;;;;;;;-146.27;57.80;46121.69;5364464;26;20011;-73
2024/04/09 08:35:16;;;;;;;4.70;1.08;;;;;;;-146.27;58.00;46101.78;5372903;26;20313;-72
2024/04/09 08:37:44;;;;;;;3.80;0.60;;;;;;;-146.27;58.42;46073.91;5341262;26;20066;-72
2024/04/09 08:40:10;;;;;;;6.20;1.10;;;;;;;-146.27;58.11;46121.69;5366036;26;19992;-71
2024/04/09 08:42:39;;;;;;;2.83;1.00;;;;;;;-146.27;57.61;46079.91;5392366;26;19995;-73
2024/04/09 08:45:08;;;;;;;1.60;0.60;;;;;;;-146.27;58.83;46093.81;5391849;26;20003;-72
2024/04/09 08:47:34;;;;;;;4.32;1.00;;;;;;;-146.27;58.70;46183.41;5402670;26;20002;-71
2024/04/09 08:50:00;;;;;;;9.98;1.00;;;;;;;-146.27;58.78;46125.69;5412329;26;20373;-71
2024/04/09 08:52:26;;;;;;;7.30;0.95;;;;;;;-146.27;58.75;46073.91;5400271;26;20387;-71
2024/04/09 08:54:52;;;;;;;2.40;0.90;;;;;;;-146.27;59.00;46065.97;5411543;26;20010;-70
2024/04/09 08:57:19;;;;;;;4.05;0.80;;;;;;;-146.27;57.81;45984.34;5407614;26;20451;-72
2024/04/09 08:59:44;;;;;;;3.92;0.88;;;;;;;-146.27;58.37;46085.88;5408803;26;20455;-71
2024/04/09 09:02:15;;;;;;;5.28;1.10;;;;;;;-146.27;58.64;46073.91;5408728;26;20119;-72
2024/04/09 09:04:41;;;;;;;7.68;1.23;;;;;;;-146.27;59.99;46109.75;5404302;26;20004;-71
2024/04/09 09:07:22;;;;;;;3.65;0.85;;;;;;;-146.27;60.38;46061.97;5392940;26;20130;-67
2024/04/09 09:09:48;;;;;;;5.07;0.88;;;;;;;-146.27;60.69;46050.03;5409025;26;20000;-67
2024/04/09 09:12:14;;;;;;;5.28;0.90;;;;;;;-146.27;60.88;46073.91;5396361;26;20011;-66
2024/04/09 09:14:55;;;;;;;4.78;0.88;;;;;;;-146.27;61.49;46071.94;5361190;26;20047;-64
2024/04/09 09:17:21;;;;;;;7.03;1.42;;;;;;;-146.27;60.61;46071.94;5408957;26;20002;-66
2024/04/09 09:19:56;;;;;;;7.47;1.20;;;;;;;-146.27;59.53;46069.94;5408206;26;20440;-68
2024/04/09 09:22:22;;;;;;;5.90;0.75;;;;;;;-146.27;59.52;46073.91;5403075;26;19992;-66
2024/04/09 09:24:47;;;;;;;3.63;1.38;;;;;;;-146.27;59.79;46073.91;5403534;26;20006;-66
2024/04/09 09:27:13;;;;;;;2.63;0.63;;;;;;;-146.27;60.22;46050.03;5400497;26;19995;-66
2024/04/09 09:29:39;;;;;;;6.55;1.33;;;;;;;-146.27;59.22;46046.06;5391880;26;20017;-64
2024/04/09 09:32:06;;;;;;;5.93;1.13;;;;;;;-146.27;59.28;46061.97;5412591;26;19999;-66
2024/04/09 09:34:42;;;;;;;4.45;1.08;;;;;;;-146.27;58.28;46030.13;5367546;26;20332;-65
2024/04/09 09:37:10;;;;;;;6.57;0.98;;;;;;;-146.27;59.37;46099.81;5399809;26;20028;-66
2024/04/09 09:39:40;;;;;;;3.60;0.73;;;;;;;-146.27;60.06;46111.75;5409885;26;20525;-66
2024/04/09 09:42:15;;;;;;;2.65;0.88;;;;;;;-146.27;59.44;46073.91;5405893;26;19995;-64
2024/04/09 09:44:42;;;;;;;3.50;0.85;;;;;;;-146.27;59.02;46103.78;5413549;26;20037;-65
2024/04/09 09:47:08;;;;;;;2.85;0.60;;;;;;;-146.27;58.42;46121.69;5410891;26;19995;-67
2024/04/09 09:49:35;;;;;;;5.95;0.80;;;;;;;-146.27;57.82;46167.47;5409552;26;20004;-66
2024/04/09 09:52:01;;;;;;;3.90;0.70;;;;;;;-146.27;58.79;46125.69;5410695;26;20080;-65
2024/04/09 09:54:27;;;;;;;3.90;1.00;;;;;;;-146.27;58.78;46089.84;5410456;26;20001;-66
2024/04/09 09:56:59;;;;;;;3.45;1.13;;;;;;;-146.27;58.93;46105.78;5379896;26;19995;-65
2024/04/09 09:59:33;;;;;;;2.80;0.65;;;;;;;-146.27;57.63;46077.91;5411106;26;20386;-65
2024/04/09 10:02:01;;;;;;;;;;;;;;;-146.27;58.42;46141.59;5411606;26;20000;-62
2024/04/09 10:04:27;;;;;;;1.92;0.65;;;;;;;-146.27;58.39;46065.97;5411842;26;20306;-66
2024/04/09 10:07:03;;;;;;;3.53;0.70;;;;;;;-146.27;59.06;46089.84;5413193;26;19991;-65
2024/04/09 10:09:48;;;;;;;4.47;1.00;;;;;;;-146.27;59.22;46093.81;5413867;26;19996;-65
2024/04/09 10:12:24;;;;;;;3.67;0.75;;;;;;;-146.27;59.13;46061.97;5401490;26;20331;-65
2024/04/09 10:15:08;;;;;;;5.22;1.02;;;;;;;-146.27;59.04;46077.91;5412604;26;20018;-65
2024/04/09 10:17:55;;;;;;;2.78;0.70;;;;;;;-146.27;57.93;46018.19;5411859;26;19991;-66
2024/04/09 10:20:31;;;;;;;7.50;0.82;;;;;;;-146.27;59.16;46079.91;5412261;26;20010;-65
2024/04/09 10:23:01;;;;;;;6.38;0.80;;;;;;;-146.27;58.05;46038.09;5413813;26;20024;-65
2024/04/09 10:25:31;;;;;;;3.10;1.40;;;;;;;-146.27;56.99;46058.00;5382750;26;19996;-65
2024/04/09 10:28:02;;;;;;;4.05;0.73;;;;;;;-146.27;56.86;46022.16;5412217;26;19999;-65
2024/04/09 10:30:28;;;;;;;3.85;0.90;;;;;;;-146.27;57.21;46048.03;5411697;26;19991;-64
2024/04/09 10:32:57;;;;;;;6.82;1.00;;;;;;;-146.27;56.43;46091.84;5413476;26;20006;-65
2024/04/09 10:35:24;;;;;;;2.20;0.70;;;;;;;-146.27;57.87;46069.94;5412727;26;20019;-65
2024/04/09 10:37:52;;;;;;;6.85;1.10;;;;;;;-146.27;58.24;46103.78;5411673;26;20343;-65
2024/04/09 10:40:17;;;;;;;4.70;0.80;;;;;;;-146.27;58.61;46149.56;5411800;26;20006;-65
2024/04/09 10:42:43;;;;;;;4.53;0.70;;;;;;;-146.27;58.33;46119.69;5393872;26;20337;-65
2024/04/09 10:45:09;;;;;;;4.88;1.02;;;;;;;-146.27;58.08;46087.84;5376938;26;20000;-63
2024/04/09 10:47:34;;;;;;;6.38;0.95;;;;;;;-146.27;58.32;46071.94;5376145;26;20004;-65
2024/04/09 10:50:01;;;;;;;5.57;0.68;;;;;;;-146.27;58.79;46093.81;5377650;26;19996;-65
2024/04/09 10:52:27;;;;;;;2.22;0.70;;;;;;;-146.27;58.84;46061.97;5367449;26;19997;-65
2024/04/09 10:54:52;;;;;;;3.20;0.73;;;;;;;-146.27;58.17;46061.97;5371965;26;20073;-66
2024/04/09 10:57:17;;;;;;;6.00;0.77;;;;;;;-146.27;57.53;45980.38;5350632;26;20449;-65
2024/04/09 10:59:43;;;;;;;4.55;0.82;;;;;;;-146.27;57.97;46024.16;5374269;26;20054;-65
2024/04/09 11:02:10;;;;;;;4.28;1.25;;;;;;;-146.27;58.64;46079.91;5350187;26;20007;-65
2024/04/09 11:04:36;;;;;;;2.92;0.82;;;;;;;-146.27;58.83;46024.16;5343893;26;20009;-66
2024/04/09 11:07:02;;;;;;;4.15;0.50;;;;;;;-146.27;58.42;46038.09;5376188;26;20015;-64
2024/04/09 11:09:28;;;;;;;8.82;1.15;;;;;;;-146.27;58.58;46081.88;5379408;26;20012;-65
2024/04/09 11:11:54;;;;;;;3.20;0.80;;;;;;;-146.27;57.66;46065.97;5379554;26;20324;-66
2024/04/09 11:14:22;;;;;;;3.10;0.90;;;;;;;-146.27;58.01;46141.59;5379929;26;20004;-65